Fort Stewart, GA

4:20 PM EDT on May 28, 2015 (GMT -0400)
Claxton-Evans County | | Change Station
CLOSE
Current Station
Airport
Location: Claxton,
Elevation: 112 ft
Nearby Weather Stations

Elev 112 ft 32.20 °N, 81.87 °W | Updated 25 minutes ago

Clear
Clear
86 °F
Feels Like 87 °F
N
8
Wind Variable Wind from East

Today
High -- | Low -- °F
--% Chance of Precip.
Yesterday
High -- | Low -- °F
Precip. -- in
6:22 AM 8:24 PM
Waxing Gibbous, 78% visible
Pressure 30.14 in
Visibility 10.0 miles
Clouds Scattered Clouds 7500 ft
Heat Index 87 °F
Dew Point 63 °F
Humidity 45%
Rainfall 0.00 in
Snow Depth Not available.
UV 8 out of 12
Pollen 5.00 out of 12
Air Quality Not available.
Flu Activity Sporadic
METAR KCWV 281955Z AUTO 08007KT 060V120 10SM SCT075 30/17 A3014 RMK AO2

More Conditions Fewer Conditions

Pressure 30.14 in
Visibility 10.0 miles
Clouds Scattered Clouds 7500 ft
Heat Index 87 °F
Dew Point 63 °F
Humidity 45%
Rainfall 0.00 in
Snow Depth Not available.
UV 8 out of 12
Pollen 5.00 out of 12
Air Quality Not available.
Flu Activity Sporadic
METAR KCWV 281955Z AUTO 08007KT 060V120 10SM SCT075 30/17 A3014 RMK AO2

More Conditions Fewer Conditions

10-Day Weather Forecast

Almanac

Astronomy

May. 28, 2015 Rise Set
Actual Time
Civil Twilight
Nautical Twilight
Astronomical Twilight
Moon
Length of Visible Light
Length of Day
Tomorrow will be .
, % of the Moon is Illuminated

Today's Extremes

State Highs State Lows

Community

WunderPhotos

Upload Photos

1,825,054 photos uploaded!

WunderBlogs® & News

Nearby

Air Quality

  Air Quality AQ Index Pollutant
Not available.

Snow Depth

Station Depth Elevation

Earthquake Activity

City Distance Mag. Time & Date
Minimum magnitude displayed is 2.5.

Coastal Water Temperatures

Place Temperature

Stations

Nearby Weather Stations

Station Location Temp. Windchill Dew Point Humidity Wind Precip. Elev Updated Type